sensor_id;sensor_type;location;lat;lon;timestamp;P1;durP1;ratioP1;P2;durP2;ratioP2
13230;SDS011;6681;53.254;10.398;2022-10-16T00:01:26;5.30;;;3.90;;
13230;SDS011;6681;53.254;10.398;2022-10-16T00:03:53;5.23;;;4.70;;
13230;SDS011;6681;53.254;10.398;2022-10-16T00:06:20;5.23;;;4.50;;
13230;SDS011;6681;53.254;10.398;2022-10-16T00:08:46;6.93;;;3.80;;
13230;SDS011;6681;53.254;10.398;2022-10-16T00:11:16;5.03;;;4.53;;
13230;SDS011;6681;53.254;10.398;2022-10-16T00:13:45;4.37;;;4.07;;
13230;SDS011;6681;53.254;10.398;2022-10-16T00:16:12;5.07;;;4.07;;
13230;SDS011;6681;53.254;10.398;2022-10-16T00:18:37;4.23;;;3.80;;
13230;SDS011;6681;53.254;10.398;2022-10-16T00:21:04;4.23;;;3.80;;
13230;SDS011;6681;53.254;10.398;2022-10-16T00:23:35;3.67;;;3.30;;
13230;SDS011;6681;53.254;10.398;2022-10-16T00:26:02;3.93;;;3.40;;
13230;SDS011;6681;53.254;10.398;2022-10-16T00:28:29;6.13;;;4.43;;
13230;SDS011;6681;53.254;10.398;2022-10-16T00:30:55;4.43;;;3.43;;
13230;SDS011;6681;53.254;10.398;2022-10-16T00:33:21;4.33;;;3.90;;
13230;SDS011;6681;53.254;10.398;2022-10-16T00:35:47;5.03;;;4.63;;
13230;SDS011;6681;53.254;10.398;2022-10-16T00:38:14;5.27;;;4.67;;
13230;SDS011;6681;53.254;10.398;2022-10-16T00:40:39;5.47;;;3.47;;
13230;SDS011;6681;53.254;10.398;2022-10-16T00:43:12;6.67;;;4.67;;
13230;SDS011;6681;53.254;10.398;2022-10-16T00:45:57;6.10;;;3.73;;
13230;SDS011;6681;53.254;10.398;2022-10-16T00:48:23;5.10;;;4.20;;
13230;SDS011;6681;53.254;10.398;2022-10-16T00:50:48;3.93;;;3.63;;
13230;SDS011;6681;53.254;10.398;2022-10-16T00:53:14;6.50;;;4.30;;
13230;SDS011;6681;53.254;10.398;2022-10-16T00:55:42;2.87;;;2.53;;
13230;SDS011;6681;53.254;10.398;2022-10-16T00:58:07;5.20;;;3.97;;
13230;SDS011;6681;53.254;10.398;2022-10-16T01:00:34;3.97;;;3.67;;
13230;SDS011;6681;53.254;10.398;2022-10-16T01:03:00;3.87;;;2.73;;
13230;SDS011;6681;53.254;10.398;2022-10-16T01:05:33;3.53;;;2.73;;
13230;SDS011;6681;53.254;10.398;2022-10-16T01:08:54;7.40;;;3.70;;
13230;SDS011;6681;53.254;10.398;2022-10-16T01:11:20;5.87;;;2.73;;
13230;SDS011;6681;53.254;10.398;2022-10-16T01:13:48;4.00;;;2.50;;
13230;SDS011;6681;53.254;10.398;2022-10-16T01:16:25;4.53;;;2.37;;
13230;SDS011;6681;53.254;10.398;2022-10-16T01:19:05;2.40;;;1.67;;
13230;SDS011;6681;53.254;10.398;2022-10-16T01:21:40;5.43;;;2.17;;
13230;SDS011;6681;53.254;10.398;2022-10-16T01:24:16;2.77;;;2.40;;
13230;SDS011;6681;53.254;10.398;2022-10-16T01:29:40;1.97;;;1.37;;
13230;SDS011;6681;53.254;10.398;2022-10-16T01:34:59;4.00;;;2.10;;
13230;SDS011;6681;53.254;10.398;2022-10-16T01:40:19;2.70;;;1.30;;
13230;SDS011;6681;53.254;10.398;2022-10-16T01:42:47;4.53;;;1.80;;
13230;SDS011;6681;53.254;10.398;2022-10-16T01:45:18;4.63;;;1.43;;
13230;SDS011;6681;53.254;10.398;2022-10-16T01:47:45;1.13;;;1.13;;
13230;SDS011;6681;53.254;10.398;2022-10-16T01:50:12;5.97;;;1.57;;
13230;SDS011;6681;53.254;10.398;2022-10-16T01:52:40;2.83;;;1.50;;
13230;SDS011;6681;53.254;10.398;2022-10-16T01:55:12;4.00;;;2.30;;
13230;SDS011;6681;53.254;10.398;2022-10-16T01:57:42;1.10;;;1.10;;
13230;SDS011;6681;53.254;10.398;2022-10-16T02:00:12;1.87;;;1.50;;
13230;SDS011;6681;53.254;10.398;2022-10-16T02:02:42;2.10;;;1.23;;
13230;SDS011;6681;53.254;10.398;2022-10-16T02:05:15;0.93;;;0.90;;
13230;SDS011;6681;53.254;10.398;2022-10-16T02:07:47;4.40;;;1.50;;
13230;SDS011;6681;53.254;10.398;2022-10-16T02:10:13;2.47;;;1.30;;
13230;SDS011;6681;53.254;10.398;2022-10-16T02:12:40;2.50;;;1.10;;
13230;SDS011;6681;53.254;10.398;2022-10-16T02:15:23;1.03;;;1.03;;
13230;SDS011;6681;53.254;10.398;2022-10-16T02:17:48;2.03;;;1.47;;
13230;SDS011;6681;53.254;10.398;2022-10-16T02:20:14;4.00;;;1.63;;
13230;SDS011;6681;53.254;10.398;2022-10-16T02:22:42;2.40;;;1.07;;
13230;SDS011;6681;53.254;10.398;2022-10-16T02:25:29;0.97;;;0.60;;
13230;SDS011;6681;53.254;10.398;2022-10-16T02:28:39;2.67;;;1.33;;
13230;SDS011;6681;53.254;10.398;2022-10-16T02:30:52;2.27;;;0.90;;
13230;SDS011;6681;53.254;10.398;2022-10-16T02:33:25;1.87;;;0.93;;
13230;SDS011;6681;53.254;10.398;2022-10-16T02:35:52;3.53;;;1.10;;
13230;SDS011;6681;53.254;10.398;2022-10-16T02:38:19;4.63;;;1.33;;
13230;SDS011;6681;53.254;10.398;2022-10-16T02:40:46;2.87;;;1.00;;
13230;SDS011;6681;53.254;10.398;2022-10-16T02:43:12;4.50;;;1.10;;
13230;SDS011;6681;53.254;10.398;2022-10-16T02:45:38;1.67;;;0.80;;
13230;SDS011;6681;53.254;10.398;2022-10-16T02:48:04;2.53;;;1.37;;
13230;SDS011;6681;53.254;10.398;2022-10-16T02:50:30;2.80;;;1.00;;
13230;SDS011;6681;53.254;10.398;2022-10-16T02:52:55;4.90;;;0.83;;
13230;SDS011;6681;53.254;10.398;2022-10-16T02:55:21;4.67;;;1.03;;
13230;SDS011;6681;53.254;10.398;2022-10-16T02:57:47;3.07;;;1.00;;
13230;SDS011;6681;53.254;10.398;2022-10-16T03:00:13;3.87;;;1.47;;
13230;SDS011;6681;53.254;10.398;2022-10-16T03:02:40;2.10;;;0.93;;
13230;SDS011;6681;53.254;10.398;2022-10-16T03:05:06;4.33;;;1.07;;
13230;SDS011;6681;53.254;10.398;2022-10-16T03:07:32;2.93;;;1.00;;
13230;SDS011;6681;53.254;10.398;2022-10-16T03:09:58;6.20;;;1.23;;
13230;SDS011;6681;53.254;10.398;2022-10-16T03:12:25;2.40;;;1.20;;
13230;SDS011;6681;53.254;10.398;2022-10-16T03:14:52;3.07;;;0.83;;
13230;SDS011;6681;53.254;10.398;2022-10-16T03:17:17;3.27;;;1.00;;
13230;SDS011;6681;53.254;10.398;2022-10-16T03:19:43;7.10;;;1.33;;
13230;SDS011;6681;53.254;10.398;2022-10-16T03:22:09;1.77;;;1.13;;
13230;SDS011;6681;53.254;10.398;2022-10-16T03:24:35;2.00;;;1.33;;
13230;SDS011;6681;53.254;10.398;2022-10-16T03:27:01;5.97;;;1.00;;
13230;SDS011;6681;53.254;10.398;2022-10-16T03:29:27;14.73;;;2.00;;
13230;SDS011;6681;53.254;10.398;2022-10-16T03:31:54;3.17;;;1.23;;
13230;SDS011;6681;53.254;10.398;2022-10-16T03:34:20;2.93;;;1.33;;
13230;SDS011;6681;53.254;10.398;2022-10-16T03:36:46;1.73;;;1.33;;
13230;SDS011;6681;53.254;10.398;2022-10-16T03:39:11;1.90;;;1.07;;
13230;SDS011;6681;53.254;10.398;2022-10-16T03:41:37;2.57;;;1.17;;
13230;SDS011;6681;53.254;10.398;2022-10-16T03:44:03;6.30;;;1.17;;
13230;SDS011;6681;53.254;10.398;2022-10-16T03:46:28;2.57;;;0.70;;
13230;SDS011;6681;53.254;10.398;2022-10-16T03:48:54;2.77;;;1.00;;
13230;SDS011;6681;53.254;10.398;2022-10-16T03:51:20;1.90;;;0.70;;
13230;SDS011;6681;53.254;10.398;2022-10-16T03:53:45;5.57;;;1.13;;
13230;SDS011;6681;53.254;10.398;2022-10-16T03:56:11;1.97;;;0.90;;
13230;SDS011;6681;53.254;10.398;2022-10-16T03:58:37;4.70;;;0.90;;
13230;SDS011;6681;53.254;10.398;2022-10-16T04:01:02;3.63;;;1.17;;
13230;SDS011;6681;53.254;10.398;2022-10-16T04:03:28;0.80;;;0.70;;
13230;SDS011;6681;53.254;10.398;2022-10-16T04:05:54;1.20;;;0.90;;
13230;SDS011;6681;53.254;10.398;2022-10-16T04:08:20;2.67;;;0.93;;
13230;SDS011;6681;53.254;10.398;2022-10-16T04:10:45;5.00;;;1.07;;
13230;SDS011;6681;53.254;10.398;2022-10-16T04:13:11;3.80;;;1.07;;
13230;SDS011;6681;53.254;10.398;2022-10-16T04:15:37;1.87;;;1.50;;
13230;SDS011;6681;53.254;10.398;2022-10-16T04:18:03;7.63;;;1.37;;
13230;SDS011;6681;53.254;10.398;2022-10-16T04:20:29;4.77;;;1.57;;
13230;SDS011;6681;53.254;10.398;2022-10-16T04:22:55;1.07;;;1.07;;
13230;SDS011;6681;53.254;10.398;2022-10-16T04:25:21;4.10;;;1.00;;
13230;SDS011;6681;53.254;10.398;2022-10-16T04:27:46;2.77;;;1.73;;
13230;SDS011;6681;53.254;10.398;2022-10-16T04:30:12;3.27;;;1.07;;
13230;SDS011;6681;53.254;10.398;2022-10-16T04:32:38;2.37;;;1.27;;
13230;SDS011;6681;53.254;10.398;2022-10-16T04:35:04;2.17;;;1.23;;
13230;SDS011;6681;53.254;10.398;2022-10-16T04:37:31;3.10;;;1.07;;
13230;SDS011;6681;53.254;10.398;2022-10-16T04:39:56;4.73;;;1.50;;
13230;SDS011;6681;53.254;10.398;2022-10-16T04:42:22;3.60;;;2.10;;
13230;SDS011;6681;53.254;10.398;2022-10-16T04:44:47;2.77;;;1.70;;
13230;SDS011;6681;53.254;10.398;2022-10-16T04:47:13;4.77;;;2.00;;
13230;SDS011;6681;53.254;10.398;2022-10-16T04:49:39;1.70;;;1.27;;
13230;SDS011;6681;53.254;10.398;2022-10-16T04:52:05;2.13;;;1.40;;
13230;SDS011;6681;53.254;10.398;2022-10-16T04:54:31;3.90;;;1.20;;
13230;SDS011;6681;53.254;10.398;2022-10-16T04:56:56;3.40;;;1.83;;
13230;SDS011;6681;53.254;10.398;2022-10-16T04:59:22;3.40;;;1.10;;
13230;SDS011;6681;53.254;10.398;2022-10-16T05:01:48;4.80;;;1.97;;
13230;SDS011;6681;53.254;10.398;2022-10-16T05:04:14;2.10;;;1.13;;
13230;SDS011;6681;53.254;10.398;2022-10-16T05:06:40;4.93;;;1.73;;
13230;SDS011;6681;53.254;10.398;2022-10-16T05:09:06;2.77;;;1.33;;
13230;SDS011;6681;53.254;10.398;2022-10-16T05:11:32;2.97;;;1.07;;
13230;SDS011;6681;53.254;10.398;2022-10-16T05:13:58;2.73;;;1.40;;
13230;SDS011;6681;53.254;10.398;2022-10-16T05:16:23;5.60;;;1.40;;
13230;SDS011;6681;53.254;10.398;2022-10-16T05:18:49;4.27;;;1.57;;
13230;SDS011;6681;53.254;10.398;2022-10-16T05:21:16;3.83;;;1.77;;
13230;SDS011;6681;53.254;10.398;2022-10-16T05:23:42;2.60;;;1.63;;
13230;SDS011;6681;53.254;10.398;2022-10-16T05:26:08;4.70;;;1.73;;
13230;SDS011;6681;53.254;10.398;2022-10-16T05:28:33;3.63;;;1.40;;
13230;SDS011;6681;53.254;10.398;2022-10-16T05:30:59;3.90;;;1.83;;
13230;SDS011;6681;53.254;10.398;2022-10-16T05:33:32;6.30;;;1.63;;
13230;SDS011;6681;53.254;10.398;2022-10-16T05:36:05;8.07;;;1.97;;
13230;SDS011;6681;53.254;10.398;2022-10-16T05:38:33;3.93;;;1.97;;
13230;SDS011;6681;53.254;10.398;2022-10-16T05:40:59;4.00;;;1.67;;
13230;SDS011;6681;53.254;10.398;2022-10-16T05:43:26;8.03;;;1.60;;
13230;SDS011;6681;53.254;10.398;2022-10-16T05:45:54;2.63;;;1.83;;
13230;SDS011;6681;53.254;10.398;2022-10-16T05:48:24;2.40;;;1.60;;
13230;SDS011;6681;53.254;10.398;2022-10-16T05:50:57;3.60;;;1.83;;
13230;SDS011;6681;53.254;10.398;2022-10-16T05:53:24;3.20;;;1.77;;
13230;SDS011;6681;53.254;10.398;2022-10-16T05:55:56;2.00;;;1.90;;
13230;SDS011;6681;53.254;10.398;2022-10-16T05:58:23;3.90;;;1.90;;
13230;SDS011;6681;53.254;10.398;2022-10-16T06:00:56;3.60;;;1.17;;
13230;SDS011;6681;53.254;10.398;2022-10-16T06:03:22;3.07;;;1.70;;
13230;SDS011;6681;53.254;10.398;2022-10-16T06:05:48;1.57;;;1.33;;
13230;SDS011;6681;53.254;10.398;2022-10-16T06:08:14;4.90;;;1.73;;
13230;SDS011;6681;53.254;10.398;2022-10-16T06:10:40;6.33;;;2.17;;
13230;SDS011;6681;53.254;10.398;2022-10-16T06:13:06;3.67;;;2.10;;
13230;SDS011;6681;53.254;10.398;2022-10-16T06:15:31;3.03;;;1.63;;
13230;SDS011;6681;53.254;10.398;2022-10-16T06:17:57;2.50;;;1.50;;
13230;SDS011;6681;53.254;10.398;2022-10-16T06:20:23;6.37;;;1.90;;
13230;SDS011;6681;53.254;10.398;2022-10-16T06:22:48;2.73;;;1.40;;
13230;SDS011;6681;53.254;10.398;2022-10-16T06:25:14;3.10;;;1.70;;
13230;SDS011;6681;53.254;10.398;2022-10-16T06:27:40;1.93;;;1.50;;
13230;SDS011;6681;53.254;10.398;2022-10-16T06:30:06;5.93;;;1.73;;
13230;SDS011;6681;53.254;10.398;2022-10-16T06:32:32;2.00;;;1.80;;
13230;SDS011;6681;53.254;10.398;2022-10-16T06:34:57;1.97;;;1.80;;
13230;SDS011;6681;53.254;10.398;2022-10-16T06:37:23;8.93;;;2.30;;
13230;SDS011;6681;53.254;10.398;2022-10-16T06:39:50;5.73;;;1.93;;
13230;SDS011;6681;53.254;10.398;2022-10-16T06:42:17;2.13;;;1.80;;
13230;SDS011;6681;53.254;10.398;2022-10-16T06:44:43;2.93;;;1.40;;
13230;SDS011;6681;53.254;10.398;2022-10-16T06:47:08;1.67;;;1.13;;
13230;SDS011;6681;53.254;10.398;2022-10-16T06:49:34;9.53;;;1.70;;
13230;SDS011;6681;53.254;10.398;2022-10-16T06:52:00;3.07;;;1.60;;
13230;SDS011;6681;53.254;10.398;2022-10-16T06:54:26;5.43;;;2.17;;
13230;SDS011;6681;53.254;10.398;2022-10-16T06:56:52;5.53;;;2.27;;
13230;SDS011;6681;53.254;10.398;2022-10-16T06:59:19;5.77;;;1.80;;
13230;SDS011;6681;53.254;10.398;2022-10-16T07:01:45;3.33;;;1.77;;
13230;SDS011;6681;53.254;10.398;2022-10-16T07:04:11;3.40;;;1.50;;
13230;SDS011;6681;53.254;10.398;2022-10-16T07:06:36;3.60;;;1.80;;
13230;SDS011;6681;53.254;10.398;2022-10-16T07:09:06;4.70;;;1.73;;
13230;SDS011;6681;53.254;10.398;2022-10-16T07:11:36;5.70;;;1.50;;
13230;SDS011;6681;53.254;10.398;2022-10-16T07:14:02;2.27;;;1.80;;
13230;SDS011;6681;53.254;10.398;2022-10-16T07:16:30;4.00;;;1.63;;
13230;SDS011;6681;53.254;10.398;2022-10-16T07:18:57;4.17;;;1.60;;
13230;SDS011;6681;53.254;10.398;2022-10-16T07:21:24;4.40;;;2.20;;
13230;SDS011;6681;53.254;10.398;2022-10-16T07:23:55;5.73;;;1.73;;
13230;SDS011;6681;53.254;10.398;2022-10-16T07:26:24;6.23;;;2.17;;
13230;SDS011;6681;53.254;10.398;2022-10-16T07:28:51;5.90;;;1.57;;
13230;SDS011;6681;53.254;10.398;2022-10-16T07:31:18;2.80;;;1.80;;
13230;SDS011;6681;53.254;10.398;2022-10-16T07:33:45;5.37;;;2.20;;
13230;SDS011;6681;53.254;10.398;2022-10-16T07:36:13;6.43;;;1.77;;
13230;SDS011;6681;53.254;10.398;2022-10-16T07:38:39;3.83;;;2.17;;
13230;SDS011;6681;53.254;10.398;2022-10-16T07:41:07;2.27;;;2.07;;
13230;SDS011;6681;53.254;10.398;2022-10-16T07:43:36;5.27;;;2.30;;
13230;SDS011;6681;53.254;10.398;2022-10-16T07:46:02;4.60;;;1.90;;
13230;SDS011;6681;53.254;10.398;2022-10-16T07:48:29;3.60;;;2.17;;
13230;SDS011;6681;53.254;10.398;2022-10-16T07:50:59;8.43;;;3.27;;
13230;SDS011;6681;53.254;10.398;2022-10-16T07:53:26;2.73;;;1.80;;
13230;SDS011;6681;53.254;10.398;2022-10-16T07:55:52;1.83;;;1.73;;
13230;SDS011;6681;53.254;10.398;2022-10-16T07:58:22;2.63;;;2.03;;
13230;SDS011;6681;53.254;10.398;2022-10-16T08:00:48;7.13;;;1.60;;
13230;SDS011;6681;53.254;10.398;2022-10-16T08:03:13;1.60;;;1.50;;
13230;SDS011;6681;53.254;10.398;2022-10-16T08:05:39;3.83;;;1.63;;
13230;SDS011;6681;53.254;10.398;2022-10-16T08:08:04;4.07;;;2.17;;
13230;SDS011;6681;53.254;10.398;2022-10-16T08:10:30;4.57;;;2.13;;
13230;SDS011;6681;53.254;10.398;2022-10-16T08:12:56;3.90;;;1.30;;
13230;SDS011;6681;53.254;10.398;2022-10-16T08:15:22;3.47;;;1.27;;
13230;SDS011;6681;53.254;10.398;2022-10-16T08:17:55;2.77;;;2.50;;
13230;SDS011;6681;53.254;10.398;2022-10-16T08:20:29;1.47;;;0.90;;
13230;SDS011;6681;53.254;10.398;2022-10-16T08:22:56;4.80;;;1.63;;
13230;SDS011;6681;53.254;10.398;2022-10-16T08:25:22;15.13;;;1.40;;
13230;SDS011;6681;53.254;10.398;2022-10-16T08:27:48;4.17;;;1.40;;
13230;SDS011;6681;53.254;10.398;2022-10-16T08:30:15;3.23;;;1.97;;
13230;SDS011;6681;53.254;10.398;2022-10-16T08:32:42;1.83;;;1.17;;
13230;SDS011;6681;53.254;10.398;2022-10-16T08:35:08;2.47;;;1.00;;
13230;SDS011;6681;53.254;10.398;2022-10-16T08:37:35;3.47;;;1.70;;
13230;SDS011;6681;53.254;10.398;2022-10-16T08:40:01;1.53;;;1.17;;
13230;SDS011;6681;53.254;10.398;2022-10-16T08:42:31;3.87;;;1.27;;
13230;SDS011;6681;53.254;10.398;2022-10-16T08:50:35;3.00;;;1.20;;
13230;SDS011;6681;53.254;10.398;2022-10-16T08:53:04;4.50;;;1.67;;
13230;SDS011;6681;53.254;10.398;2022-10-16T08:55:33;4.33;;;1.47;;
13230;SDS011;6681;53.254;10.398;2022-10-16T08:58:13;1.47;;;1.37;;
13230;SDS011;6681;53.254;10.398;2022-10-16T09:00:47;0.90;;;0.90;;
13230;SDS011;6681;53.254;10.398;2022-10-16T09:09:06;2.83;;;0.73;;
13230;SDS011;6681;53.254;10.398;2022-10-16T09:11:39;1.97;;;1.03;;
13230;SDS011;6681;53.254;10.398;2022-10-16T09:14:33;1.07;;;0.97;;
13230;SDS011;6681;53.254;10.398;2022-10-16T09:17:26;6.03;;;1.50;;
13230;SDS011;6681;53.254;10.398;2022-10-16T09:22:40;2.73;;;1.03;;
13230;SDS011;6681;53.254;10.398;2022-10-16T09:25:13;4.87;;;0.90;;
13230;SDS011;6681;53.254;10.398;2022-10-16T09:27:41;4.40;;;0.73;;
13230;SDS011;6681;53.254;10.398;2022-10-16T09:32:39;1.00;;;0.47;;
13230;SDS011;6681;53.254;10.398;2022-10-16T09:35:10;2.57;;;0.60;;
13230;SDS011;6681;53.254;10.398;2022-10-16T09:37:42;1.27;;;0.53;;
13230;SDS011;6681;53.254;10.398;2022-10-16T09:40:30;5.43;;;0.70;;
13230;SDS011;6681;53.254;10.398;2022-10-16T09:43:01;2.20;;;0.43;;
13230;SDS011;6681;53.254;10.398;2022-10-16T09:45:33;0.40;;;0.30;;
13230;SDS011;6681;53.254;10.398;2022-10-16T09:48:00;6.43;;;0.50;;
13230;SDS011;6681;53.254;10.398;2022-10-16T09:50:34;1.30;;;0.67;;
13230;SDS011;6681;53.254;10.398;2022-10-16T09:53:13;3.50;;;0.50;;
13230;SDS011;6681;53.254;10.398;2022-10-16T09:55:49;3.07;;;0.50;;
13230;SDS011;6681;53.254;10.398;2022-10-16T09:58:16;6.80;;;0.70;;
13230;SDS011;6681;53.254;10.398;2022-10-16T10:00:42;1.67;;;0.57;;
13230;SDS011;6681;53.254;10.398;2022-10-16T10:03:32;1.10;;;0.47;;
13230;SDS011;6681;53.254;10.398;2022-10-16T10:08:53;5.10;;;1.00;;
13230;SDS011;6681;53.254;10.398;2022-10-16T10:11:40;7.37;;;1.43;;
13230;SDS011;6681;53.254;10.398;2022-10-16T10:14:21;3.03;;;0.93;;
13230;SDS011;6681;53.254;10.398;2022-10-16T10:16:49;0.70;;;0.70;;
13230;SDS011;6681;53.254;10.398;2022-10-16T10:19:20;0.87;;;0.50;;
13230;SDS011;6681;53.254;10.398;2022-10-16T10:21:47;1.07;;;0.40;;
13230;SDS011;6681;53.254;10.398;2022-10-16T10:24:16;2.03;;;0.70;;
13230;SDS011;6681;53.254;10.398;2022-10-16T10:32:30;2.73;;;1.33;;
13230;SDS011;6681;53.254;10.398;2022-10-16T10:35:25;1.17;;;0.50;;
13230;SDS011;6681;53.254;10.398;2022-10-16T10:40:39;1.80;;;0.50;;
13230;SDS011;6681;53.254;10.398;2022-10-16T10:43:18;2.00;;;0.43;;
13230;SDS011;6681;53.254;10.398;2022-10-16T10:45:58;2.67;;;0.50;;
13230;SDS011;6681;53.254;10.398;2022-10-16T10:53:54;3.03;;;0.50;;
13230;SDS011;6681;53.254;10.398;2022-10-16T11:01:50;3.50;;;0.70;;
13230;SDS011;6681;53.254;10.398;2022-10-16T11:04:29;4.00;;;0.40;;
13230;SDS011;6681;53.254;10.398;2022-10-16T11:07:05;0.73;;;0.50;;
13230;SDS011;6681;53.254;10.398;2022-10-16T11:09:50;1.13;;;0.40;;
13230;SDS011;6681;53.254;10.398;2022-10-16T11:12:19;4.93;;;0.53;;
13230;SDS011;6681;53.254;10.398;2022-10-16T11:17:30;0.63;;;0.30;;
13230;SDS011;6681;53.254;10.398;2022-10-16T11:20:05;1.93;;;0.50;;
13230;SDS011;6681;53.254;10.398;2022-10-16T11:22:38;1.40;;;0.50;;
13230;SDS011;6681;53.254;10.398;2022-10-16T11:27:47;1.30;;;0.70;;
13230;SDS011;6681;53.254;10.398;2022-10-16T11:30:27;1.90;;;0.90;;
13230;SDS011;6681;53.254;10.398;2022-10-16T11:47:07;3.27;;;0.87;;
13230;SDS011;6681;53.254;10.398;2022-10-16T11:49:49;4.70;;;0.87;;
13230;SDS011;6681;53.254;10.398;2022-10-16T11:52:25;2.10;;;0.77;;
13230;SDS011;6681;53.254;10.398;2022-10-16T11:57:46;0.57;;;0.40;;
13230;SDS011;6681;53.254;10.398;2022-10-16T12:00:25;3.50;;;0.60;;
13230;SDS011;6681;53.254;10.398;2022-10-16T12:05:59;1.50;;;0.60;;
13230;SDS011;6681;53.254;10.398;2022-10-16T12:08:43;4.13;;;1.23;;
13230;SDS011;6681;53.254;10.398;2022-10-16T12:11:20;3.27;;;0.70;;
13230;SDS011;6681;53.254;10.398;2022-10-16T12:13:49;5.97;;;0.70;;
13230;SDS011;6681;53.254;10.398;2022-10-16T12:18:42;1.00;;;0.93;;
13230;SDS011;6681;53.254;10.398;2022-10-16T12:21:09;9.57;;;1.00;;
13230;SDS011;6681;53.254;10.398;2022-10-16T12:24:02;2.67;;;0.50;;
13230;SDS011;6681;53.254;10.398;2022-10-16T12:26:37;2.07;;;0.73;;
13230;SDS011;6681;53.254;10.398;2022-10-16T12:29:38;0.60;;;0.40;;
13230;SDS011;6681;53.254;10.398;2022-10-16T12:32:22;4.57;;;0.60;;
13230;SDS011;6681;53.254;10.398;2022-10-16T12:34:53;0.60;;;0.30;;
13230;SDS011;6681;53.254;10.398;2022-10-16T12:37:30;5.37;;;1.73;;
13230;SDS011;6681;53.254;10.398;2022-10-16T12:39:59;3.80;;;0.70;;
13230;SDS011;6681;53.254;10.398;2022-10-16T12:42:36;2.40;;;0.47;;
13230;SDS011;6681;53.254;10.398;2022-10-16T12:45:12;1.40;;;0.60;;
13230;SDS011;6681;53.254;10.398;2022-10-16T12:47:52;2.67;;;0.40;;
13230;SDS011;6681;53.254;10.398;2022-10-16T12:50:23;4.10;;;1.50;;
13230;SDS011;6681;53.254;10.398;2022-10-16T12:52:51;4.80;;;1.17;;
13230;SDS011;6681;53.254;10.398;2022-10-16T12:55:17;0.97;;;0.70;;
13230;SDS011;6681;53.254;10.398;2022-10-16T12:58:06;5.37;;;2.20;;
13230;SDS011;6681;53.254;10.398;2022-10-16T13:06:42;3.50;;;0.80;;
13230;SDS011;6681;53.254;10.398;2022-10-16T13:09:22;2.30;;;0.70;;
13230;SDS011;6681;53.254;10.398;2022-10-16T13:20:03;3.23;;;0.60;;
13230;SDS011;6681;53.254;10.398;2022-10-16T13:22:43;3.33;;;0.50;;
13230;SDS011;6681;53.254;10.398;2022-10-16T13:25:35;0.40;;;0.40;;
13230;SDS011;6681;53.254;10.398;2022-10-16T13:28:08;2.73;;;0.73;;
13230;SDS011;6681;53.254;10.398;2022-10-16T13:33:07;4.77;;;0.90;;
13230;SDS011;6681;53.254;10.398;2022-10-16T13:35:50;2.37;;;0.80;;
13230;SDS011;6681;53.254;10.398;2022-10-16T13:38:18;1.70;;;1.13;;
13230;SDS011;6681;53.254;10.398;2022-10-16T13:40:49;4.80;;;1.27;;
13230;SDS011;6681;53.254;10.398;2022-10-16T13:43:33;1.57;;;0.93;;
13230;SDS011;6681;53.254;10.398;2022-10-16T13:48:29;6.60;;;0.80;;
13230;SDS011;6681;53.254;10.398;2022-10-16T13:51:03;2.57;;;0.50;;
13230;SDS011;6681;53.254;10.398;2022-10-16T13:53:36;6.70;;;0.80;;
13230;SDS011;6681;53.254;10.398;2022-10-16T13:56:02;5.20;;;2.47;;
13230;SDS011;6681;53.254;10.398;2022-10-16T13:58:30;2.97;;;1.03;;
13230;SDS011;6681;53.254;10.398;2022-10-16T14:01:00;4.30;;;0.67;;
13230;SDS011;6681;53.254;10.398;2022-10-16T14:03:28;1.20;;;0.60;;
13230;SDS011;6681;53.254;10.398;2022-10-16T14:05:59;1.13;;;0.93;;
13230;SDS011;6681;53.254;10.398;2022-10-16T14:08:27;2.13;;;0.63;;
13230;SDS011;6681;53.254;10.398;2022-10-16T14:10:59;0.87;;;0.80;;
13230;SDS011;6681;53.254;10.398;2022-10-16T14:13:28;3.20;;;1.47;;
13230;SDS011;6681;53.254;10.398;2022-10-16T14:16:07;1.80;;;0.33;;
13230;SDS011;6681;53.254;10.398;2022-10-16T14:18:34;1.03;;;0.40;;
13230;SDS011;6681;53.254;10.398;2022-10-16T14:21:11;2.00;;;0.60;;
13230;SDS011;6681;53.254;10.398;2022-10-16T14:23:40;3.27;;;0.70;;
13230;SDS011;6681;53.254;10.398;2022-10-16T14:26:11;3.73;;;0.80;;
13230;SDS011;6681;53.254;10.398;2022-10-16T14:28:39;3.90;;;0.63;;
13230;SDS011;6681;53.254;10.398;2022-10-16T14:31:23;0.37;;;0.33;;
13230;SDS011;6681;53.254;10.398;2022-10-16T14:33:52;3.53;;;0.93;;
13230;SDS011;6681;53.254;10.398;2022-10-16T14:36:18;3.17;;;1.20;;
13230;SDS011;6681;53.254;10.398;2022-10-16T14:38:52;2.37;;;0.40;;
13230;SDS011;6681;53.254;10.398;2022-10-16T14:41:31;1.03;;;0.70;;
13230;SDS011;6681;53.254;10.398;2022-10-16T14:44:05;1.80;;;0.60;;
13230;SDS011;6681;53.254;10.398;2022-10-16T14:46:32;0.50;;;0.33;;
13230;SDS011;6681;53.254;10.398;2022-10-16T14:49:02;3.60;;;0.90;;
13230;SDS011;6681;53.254;10.398;2022-10-16T14:51:38;4.30;;;0.60;;
13230;SDS011;6681;53.254;10.398;2022-10-16T14:54:09;4.70;;;0.93;;
13230;SDS011;6681;53.254;10.398;2022-10-16T14:56:57;1.47;;;0.60;;
13230;SDS011;6681;53.254;10.398;2022-10-16T15:01:52;1.60;;;0.80;;
13230;SDS011;6681;53.254;10.398;2022-10-16T15:04:18;2.27;;;0.50;;
13230;SDS011;6681;53.254;10.398;2022-10-16T15:06:44;4.97;;;1.00;;
13230;SDS011;6681;53.254;10.398;2022-10-16T15:09:09;4.23;;;0.87;;
13230;SDS011;6681;53.254;10.398;2022-10-16T15:11:35;4.17;;;0.87;;
13230;SDS011;6681;53.254;10.398;2022-10-16T15:14:01;0.67;;;0.60;;
13230;SDS011;6681;53.254;10.398;2022-10-16T15:16:28;1.80;;;0.70;;
13230;SDS011;6681;53.254;10.398;2022-10-16T15:18:54;9.63;;;1.13;;
13230;SDS011;6681;53.254;10.398;2022-10-16T15:21:24;2.50;;;0.90;;
13230;SDS011;6681;53.254;10.398;2022-10-16T15:23:51;2.23;;;1.03;;
13230;SDS011;6681;53.254;10.398;2022-10-16T15:26:17;4.53;;;1.10;;
13230;SDS011;6681;53.254;10.398;2022-10-16T15:28:43;4.80;;;0.67;;
13230;SDS011;6681;53.254;10.398;2022-10-16T15:31:08;2.23;;;0.67;;
13230;SDS011;6681;53.254;10.398;2022-10-16T15:33:34;7.47;;;0.57;;
13230;SDS011;6681;53.254;10.398;2022-10-16T15:36:00;0.93;;;0.43;;
13230;SDS011;6681;53.254;10.398;2022-10-16T15:38:27;3.97;;;1.43;;
13230;SDS011;6681;53.254;10.398;2022-10-16T15:40:53;0.50;;;0.50;;
13230;SDS011;6681;53.254;10.398;2022-10-16T15:43:19;3.10;;;0.67;;
13230;SDS011;6681;53.254;10.398;2022-10-16T15:45:58;0.87;;;0.60;;
13230;SDS011;6681;53.254;10.398;2022-10-16T15:48:26;5.80;;;0.77;;
13230;SDS011;6681;53.254;10.398;2022-10-16T15:50:52;2.00;;;1.17;;
13230;SDS011;6681;53.254;10.398;2022-10-16T15:53:18;1.63;;;0.63;;
13230;SDS011;6681;53.254;10.398;2022-10-16T15:55:43;0.97;;;0.47;;
13230;SDS011;6681;53.254;10.398;2022-10-16T15:58:09;1.53;;;1.13;;
13230;SDS011;6681;53.254;10.398;2022-10-16T16:00:34;1.77;;;0.83;;
13230;SDS011;6681;53.254;10.398;2022-10-16T16:03:00;1.70;;;0.67;;
13230;SDS011;6681;53.254;10.398;2022-10-16T16:05:26;2.83;;;0.70;;
13230;SDS011;6681;53.254;10.398;2022-10-16T16:07:52;2.17;;;1.33;;
13230;SDS011;6681;53.254;10.398;2022-10-16T16:10:18;2.40;;;0.50;;
13230;SDS011;6681;53.254;10.398;2022-10-16T16:12:46;1.13;;;0.67;;
13230;SDS011;6681;53.254;10.398;2022-10-16T16:15:18;6.73;;;1.63;;
13230;SDS011;6681;53.254;10.398;2022-10-16T16:17:45;2.40;;;0.80;;
13230;SDS011;6681;53.254;10.398;2022-10-16T16:20:11;3.67;;;0.93;;
13230;SDS011;6681;53.254;10.398;2022-10-16T16:22:36;3.00;;;0.80;;
13230;SDS011;6681;53.254;10.398;2022-10-16T16:25:02;2.20;;;0.70;;
13230;SDS011;6681;53.254;10.398;2022-10-16T16:27:28;1.13;;;0.60;;
13230;SDS011;6681;53.254;10.398;2022-10-16T16:29:57;2.53;;;0.73;;
13230;SDS011;6681;53.254;10.398;2022-10-16T16:32:23;2.03;;;0.97;;
13230;SDS011;6681;53.254;10.398;2022-10-16T16:34:49;2.57;;;0.70;;
13230;SDS011;6681;53.254;10.398;2022-10-16T16:37:14;6.07;;;1.60;;
13230;SDS011;6681;53.254;10.398;2022-10-16T16:39:40;1.83;;;0.63;;